Terminal Aerodrome Forecast
Issued by NWS

Home | Current Version | Previous Version | Text Only | Print | Product List | Glossary On
Versions: 1 2 3 4 5 6 7 8 9 10 11 12 13 14 15 16
000
FTUS46 KLOX 190500
TAFPRB
TAF
KPRB 190532Z 1906/2006 21008KT P6SM SCT250
     FM190700 VRB03KT P6SM SCT250
     FM190900 VRB03KT P6SM OVC010
     FM191600 VRB03KT P6SM SCT250
     FM192100 32008KT P6SM SKC
     FM200500 VRB03KT P6SM SKC=

USA.gov is the U.S. government's official web portal to all federal, state and local government web resources and services.